Time;durP1;ratioP1;P1;durP2;ratioP2;P2;SDS_P1;SDS_P2;PMS_P1;PMS_P2;Temp;Humidity;BMP_temperature;BMP_pressure;BME280_temperature;BME280_humidity;BME280_pressure;Samples;Min_cycle;Max_cycle;Signal;HPM_P1;HPM_P2
2024/01/17 00:01:19;;;;;;;3.55;2.10;;;;;;;;;;5038587;28;20225;-76
2024/01/17 00:03:44;;;;;;;5.68;2.30;;;;;;;;;;5038013;28;20014;-77
2024/01/17 00:06:10;;;;;;;6.88;2.35;;;;;;;;;;5024823;28;20481;-76
2024/01/17 00:08:35;;;;;;;7.20;2.80;;;;;;;;;;5022539;28;20038;-77
2024/01/17 00:11:00;;;;;;;5.25;2.83;;;;;;;;;;5019200;28;20064;-78
2024/01/17 00:13:25;;;;;;;6.78;2.97;;;;;;;;;;5018464;28;20109;-76
2024/01/17 00:15:51;;;;;;;7.00;2.65;;;;;;;;;;5017666;28;20033;-77
2024/01/17 00:18:16;;;;;;;7.82;2.88;;;;;;;;;;5014966;28;20030;-78
2024/01/17 00:20:41;;;;;;;12.00;2.90;;;;;;;;;;4997204;28;20037;-77
2024/01/17 00:23:06;;;;;;;6.03;2.38;;;;;;;;;;5016632;28;20036;-78
2024/01/17 00:25:31;;;;;;;5.47;2.70;;;;;;;;;;5015644;28;20109;-77
2024/01/17 00:27:57;;;;;;;4.68;2.25;;;;;;;;;;4998290;28;20064;-76
2024/01/17 00:30:23;;;;;;;3.83;2.35;;;;;;;;;;5014710;28;20022;-77
2024/01/17 00:32:48;;;;;;;7.35;2.60;;;;;;;;;;4996987;28;20026;-76
2024/01/17 00:35:13;;;;;;;5.28;2.70;;;;;;;;;;5014610;28;20080;-77
2024/01/17 00:37:38;;;;;;;4.53;2.35;;;;;;;;;;5014142;28;20109;-78
2024/01/17 00:40:04;;;;;;;5.18;2.70;;;;;;;;;;5015530;28;20026;-78
2024/01/17 00:42:30;;;;;;;5.32;2.78;;;;;;;;;;5015785;28;20038;-77
2024/01/17 00:44:55;;;;;;;5.97;2.80;;;;;;;;;;5016143;28;20072;-77
2024/01/17 00:47:20;;;;;;;6.88;2.67;;;;;;;;;;5015805;28;20030;-77
2024/01/17 00:49:45;;;;;;;5.15;2.70;;;;;;;;;;5016813;28;20029;-77
2024/01/17 00:52:11;;;;;;;4.95;3.05;;;;;;;;;;5016857;28;20076;-77
2024/01/17 00:54:36;;;;;;;5.85;3.00;;;;;;;;;;4997859;28;20021;-77
2024/01/17 00:57:01;;;;;;;5.70;3.05;;;;;;;;;;5015833;28;20116;-78
2024/01/17 00:59:26;;;;;;;4.90;2.72;;;;;;;;;;4999787;28;20029;-78
2024/01/17 01:01:52;;;;;;;6.22;3.05;;;;;;;;;;5016188;28;20519;-77
2024/01/17 01:04:17;;;;;;;5.45;2.83;;;;;;;;;;5017609;28;20524;-77
2024/01/17 01:06:42;;;;;;;7.88;2.70;;;;;;;;;;5000121;28;20045;-77
2024/01/17 01:09:09;;;;;;;5.80;3.20;;;;;;;;;;4998406;28;20437;-77
2024/01/17 01:11:35;;;;;;;5.72;2.90;;;;;;;;;;5016302;28;20018;-77
2024/01/17 01:14:00;;;;;;;5.70;2.88;;;;;;;;;;5015269;28;20497;-76
2024/01/17 01:16:26;;;;;;;5.22;3.00;;;;;;;;;;5015406;28;20076;-75
2024/01/17 01:18:51;;;;;;;6.72;3.22;;;;;;;;;;5014997;28;20112;-77
2024/01/17 01:21:16;;;;;;;8.60;3.35;;;;;;;;;;5015763;28;20064;-76
2024/01/17 01:23:42;;;;;;;4.60;2.67;;;;;;;;;;5015302;28;20033;-76
2024/01/17 01:26:07;;;;;;;6.03;2.75;;;;;;;;;;4997564;28;20095;-77
2024/01/17 01:28:32;;;;;;;7.13;3.30;;;;;;;;;;5018774;28;20435;-77
2024/01/17 01:30:57;;;;;;;8.38;3.45;;;;;;;;;;5018306;28;20507;-75
2024/01/17 01:33:23;;;;;;;8.38;3.05;;;;;;;;;;5018660;28;20423;-76
2024/01/17 01:35:48;;;;;;;6.72;3.13;;;;;;;;;;5000865;28;20416;-77
2024/01/17 01:38:13;;;;;;;4.43;2.65;;;;;;;;;;5018919;28;20028;-77
2024/01/17 01:40:38;;;;;;;6.00;3.03;;;;;;;;;;5001980;28;20056;-77
2024/01/17 01:43:17;;;;;;;8.38;3.75;;;;;;;;;;5021220;28;20034;-77
2024/01/17 01:45:42;;;;;;;8.63;3.20;;;;;;;;;;5002803;28;20397;-76
2024/01/17 01:48:08;;;;;;;11.13;3.38;;;;;;;;;;5020069;28;20034;-75
2024/01/17 01:50:33;;;;;;;8.68;3.38;;;;;;;;;;5002196;28;20084;-77
2024/01/17 01:52:58;;;;;;;7.30;3.60;;;;;;;;;;5019272;28;20026;-77
2024/01/17 01:55:24;;;;;;;8.85;3.03;;;;;;;;;;5019270;28;20102;-77
2024/01/17 01:57:50;;;;;;;7.53;3.22;;;;;;;;;;5019546;28;20041;-76
2024/01/17 02:00:17;;;;;;;5.97;3.42;;;;;;;;;;5019402;28;20029;-77
2024/01/17 02:02:44;;;;;;;6.10;3.30;;;;;;;;;;5001610;28;20121;-76
2024/01/17 02:05:09;;;;;;;13.25;3.63;;;;;;;;;;5019050;28;20028;-77
2024/01/17 02:07:37;;;;;;;6.85;3.22;;;;;;;;;;5000292;28;20026;-77
2024/01/17 02:10:03;;;;;;;8.98;4.00;;;;;;;;;;5017864;28;20048;-77
2024/01/17 02:12:30;;;;;;;5.45;3.20;;;;;;;;;;5017911;28;20022;-74
2024/01/17 02:14:55;;;;;;;6.35;3.22;;;;;;;;;;5017898;28;20054;-76
2024/01/17 02:17:20;;;;;;;6.80;2.97;;;;;;;;;;5018036;28;20029;-77
2024/01/17 02:19:46;;;;;;;5.00;2.80;;;;;;;;;;5017994;28;20026;-74
2024/01/17 02:22:11;;;;;;;5.15;3.05;;;;;;;;;;5018282;28;20030;-77
2024/01/17 02:24:36;;;;;;;8.95;3.08;;;;;;;;;;5018176;28;20049;-76
2024/01/17 02:27:02;;;;;;;6.95;3.22;;;;;;;;;;5018107;28;20030;-76
2024/01/17 02:29:28;;;;;;;6.20;3.38;;;;;;;;;;5000174;28;20428;-79
2024/01/17 02:31:54;;;;;;;10.15;3.60;;;;;;;;;;5018183;28;20030;-77
2024/01/17 02:34:19;;;;;;;6.53;3.20;;;;;;;;;;5018565;28;20022;-76
2024/01/17 02:36:45;;;;;;;8.73;3.47;;;;;;;;;;5018166;28;20030;-77
2024/01/17 02:39:10;;;;;;;8.90;3.15;;;;;;;;;;5000562;28;20073;-77
2024/01/17 02:41:35;;;;;;;7.78;3.40;;;;;;;;;;5019865;28;20481;-78
2024/01/17 02:44:01;;;;;;;8.35;3.42;;;;;;;;;;4999888;28;20060;-74
2024/01/17 02:46:28;;;;;;;6.75;3.58;;;;;;;;;;5017317;28;20053;-75
2024/01/17 02:48:53;;;;;;;10.95;3.80;;;;;;;;;;5017513;28;20034;-77
2024/01/17 02:51:18;;;;;;;11.00;3.83;;;;;;;;;;4999918;28;20436;-76
2024/01/17 02:53:44;;;;;;;7.82;3.17;;;;;;;;;;5017737;28;20480;-76
2024/01/17 02:56:09;;;;;;;6.63;3.70;;;;;;;;;;5017637;28;20096;-78
2024/01/17 02:58:34;;;;;;;15.48;3.70;;;;;;;;;;5017232;28;20056;-77
2024/01/17 03:00:59;;;;;;;12.68;3.50;;;;;;;;;;5000990;28;20069;-77
2024/01/17 03:03:25;;;;;;;5.93;3.28;;;;;;;;;;5019775;28;20054;-77
2024/01/17 03:05:50;;;;;;;6.80;3.67;;;;;;;;;;5019433;28;20030;-78
2024/01/17 03:08:15;;;;;;;9.40;4.32;;;;;;;;;;5001176;28;20033;-77
2024/01/17 03:10:40;;;;;;;8.50;4.32;;;;;;;;;;5020252;28;20032;-77
2024/01/17 03:13:06;;;;;;;6.97;3.70;;;;;;;;;;5017434;28;20100;-78
2024/01/17 03:15:31;;;;;;;7.40;3.78;;;;;;;;;;5016730;28;20080;-77
2024/01/17 03:17:56;;;;;;;8.52;4.00;;;;;;;;;;5016691;28;20034;-77
2024/01/17 03:20:22;;;;;;;8.07;3.85;;;;;;;;;;5015453;28;20068;-76
2024/01/17 03:22:47;;;;;;;8.38;3.63;;;;;;;;;;5015365;28;20025;-77
2024/01/17 03:25:12;;;;;;;8.20;4.22;;;;;;;;;;5015715;28;20087;-77
2024/01/17 03:27:37;;;;;;;8.23;3.75;;;;;;;;;;4999981;28;20018;-78
2024/01/17 03:30:04;;;;;;;7.43;3.72;;;;;;;;;;5018319;28;20029;-77
2024/01/17 03:32:29;;;;;;;6.55;3.92;;;;;;;;;;4999810;28;20040;-78
2024/01/17 03:34:55;;;;;;;7.68;3.80;;;;;;;;;;5018097;28;20556;-77
2024/01/17 03:37:21;;;;;;;10.45;3.80;;;;;;;;;;5017132;28;20068;-77
2024/01/17 03:39:47;;;;;;;11.30;3.95;;;;;;;;;;4999048;28;20026;-78
2024/01/17 03:42:18;;;;;;;6.25;3.47;;;;;;;;;;5016740;28;20022;-78
2024/01/17 03:44:44;;;;;;;8.02;3.92;;;;;;;;;;4999098;28;20112;-77
2024/01/17 03:47:10;;;;;;;11.00;4.03;;;;;;;;;;5016591;28;20068;-76
2024/01/17 03:49:35;;;;;;;10.05;4.28;;;;;;;;;;5015476;28;20030;-77
2024/01/17 03:52:01;;;;;;;8.77;4.10;;;;;;;;;;4998842;28;20032;-76
2024/01/17 03:54:26;;;;;;;8.23;4.00;;;;;;;;;;5023107;28;20010;-76
2024/01/17 03:56:51;;;;;;;8.20;3.65;;;;;;;;;;5037059;28;20041;-76
2024/01/17 03:59:17;;;;;;;12.20;4.30;;;;;;;;;;5037363;28;20033;-76
2024/01/17 04:01:43;;;;;;;10.93;4.10;;;;;;;;;;5030709;28;20086;-78
2024/01/17 04:04:09;;;;;;;11.07;4.35;;;;;;;;;;5025017;28;20045;-77
2024/01/17 04:06:34;;;;;;;10.90;4.35;;;;;;;;;;5006158;28;20030;-78
2024/01/17 04:08:59;;;;;;;7.55;3.50;;;;;;;;;;5024143;28;20029;-78
2024/01/17 04:11:24;;;;;;;6.43;3.53;;;;;;;;;;5024025;28;20029;-78
2024/01/17 04:13:50;;;;;;;11.68;4.05;;;;;;;;;;5022511;28;20435;-77
2024/01/17 04:16:15;;;;;;;7.38;3.90;;;;;;;;;;5023279;28;20022;-77
2024/01/17 04:18:40;;;;;;;7.15;3.75;;;;;;;;;;5023814;28;20049;-78
2024/01/17 04:21:05;;;;;;;6.43;3.65;;;;;;;;;;5003307;28;20045;-77
2024/01/17 04:23:31;;;;;;;12.85;4.25;;;;;;;;;;5003155;28;20393;-78
2024/01/17 04:25:56;;;;;;;9.02;3.58;;;;;;;;;;5017763;28;20025;-77
2024/01/17 04:28:21;;;;;;;7.50;3.97;;;;;;;;;;5018311;28;20057;-76
2024/01/17 04:30:46;;;;;;;8.48;4.13;;;;;;;;;;5016844;28;20430;-77
2024/01/17 04:33:12;;;;;;;6.97;3.92;;;;;;;;;;5014769;28;20077;-77
2024/01/17 04:35:37;;;;;;;7.30;3.92;;;;;;;;;;5017112;28;20025;-78
2024/01/17 04:38:03;;;;;;;13.75;3.85;;;;;;;;;;5018420;28;20374;-77
2024/01/17 04:40:28;;;;;;;9.85;4.05;;;;;;;;;;5019452;28;20044;-78
2024/01/17 04:42:53;;;;;;;9.60;3.72;;;;;;;;;;5018740;28;20022;-78
2024/01/17 04:45:19;;;;;;;9.27;4.07;;;;;;;;;;5015593;28;20057;-76
2024/01/17 04:47:44;;;;;;;6.82;3.88;;;;;;;;;;5018052;28;20021;-79
2024/01/17 04:50:12;;;;;;;9.15;4.10;;;;;;;;;;5001177;28;20022;-79
2024/01/17 04:52:37;;;;;;;10.52;4.43;;;;;;;;;;5003435;28;20366;-77
2024/01/17 04:55:03;;;;;;;8.73;4.40;;;;;;;;;;4998138;28;20163;-77
2024/01/17 04:57:29;;;;;;;7.57;4.22;;;;;;;;;;5017481;28;20036;-77
2024/01/17 04:59:54;;;;;;;8.55;4.03;;;;;;;;;;5020002;28;20030;-78
2024/01/17 05:02:19;;;;;;;9.75;4.18;;;;;;;;;;5017989;28;20041;-78
2024/01/17 05:04:44;;;;;;;8.23;4.20;;;;;;;;;;5018449;28;20038;-78
2024/01/17 05:07:10;;;;;;;12.50;4.10;;;;;;;;;;5000447;28;20040;-76
2024/01/17 05:09:35;;;;;;;9.50;4.40;;;;;;;;;;5016318;28;20109;-77
2024/01/17 05:12:00;;;;;;;10.02;4.57;;;;;;;;;;5017778;28;20021;-77
2024/01/17 05:14:26;;;;;;;14.95;4.68;;;;;;;;;;5017486;28;20109;-78
2024/01/17 05:16:51;;;;;;;13.63;5.07;;;;;;;;;;5020106;28;20091;-77
2024/01/17 05:19:17;;;;;;;12.13;5.03;;;;;;;;;;5016656;28;20034;-76
2024/01/17 05:21:42;;;;;;;9.52;4.60;;;;;;;;;;4997237;28;20030;-77
2024/01/17 05:24:07;;;;;;;11.00;4.63;;;;;;;;;;5013740;28;20113;-77
2024/01/17 05:26:33;;;;;;;8.40;4.63;;;;;;;;;;5013848;28;20056;-77
2024/01/17 05:28:58;;;;;;;14.23;5.45;;;;;;;;;;5013725;28;20030;-77
2024/01/17 05:31:23;;;;;;;11.80;5.57;;;;;;;;;;5013808;28;20056;-77
2024/01/17 05:33:48;;;;;;;17.67;7.43;;;;;;;;;;4995886;28;20129;-76
2024/01/17 05:36:14;;;;;;;17.83;7.35;;;;;;;;;;4996537;28;20503;-77
2024/01/17 05:38:39;;;;;;;17.40;7.78;;;;;;;;;;5015662;28;20021;-77
2024/01/17 05:41:04;;;;;;;15.93;6.68;;;;;;;;;;5018676;28;20089;-78
2024/01/17 05:43:30;;;;;;;12.18;5.72;;;;;;;;;;5020066;28;20034;-77
2024/01/17 05:45:57;;;;;;;13.70;5.82;;;;;;;;;;4998675;28;20034;-77
2024/01/17 05:48:23;;;;;;;9.32;4.70;;;;;;;;;;5013850;28;20029;-77
2024/01/17 05:50:48;;;;;;;14.02;5.70;;;;;;;;;;5015525;28;20036;-77
2024/01/17 05:53:14;;;;;;;9.60;4.57;;;;;;;;;;5015809;28;20108;-77
2024/01/17 05:55:39;;;;;;;13.68;5.32;;;;;;;;;;5015689;28;20155;-77
2024/01/17 05:58:04;;;;;;;11.50;4.90;;;;;;;;;;5016550;28;20392;-76
2024/01/17 06:00:29;;;;;;;9.90;4.43;;;;;;;;;;5014398;28;20040;-77
2024/01/17 06:02:55;;;;;;;10.77;4.97;;;;;;;;;;5014481;28;20500;-77
2024/01/17 06:05:20;;;;;;;9.63;4.25;;;;;;;;;;5015977;28;20104;-76
2024/01/17 06:07:49;;;;;;;9.85;4.88;;;;;;;;;;5015068;28;20048;-81
2024/01/17 06:10:15;;;;;;;10.57;4.28;;;;;;;;;;5003512;28;20507;-77
2024/01/17 06:12:40;;;;;;;9.00;4.82;;;;;;;;;;5018152;28;20034;-77
2024/01/17 06:15:06;;;;;;;14.38;5.03;;;;;;;;;;5000280;28;20028;-77
2024/01/17 06:17:32;;;;;;;10.38;5.10;;;;;;;;;;5000567;28;20112;-76
2024/01/17 06:19:57;;;;;;;8.63;4.57;;;;;;;;;;4999556;28;20060;-77
2024/01/17 06:22:22;;;;;;;11.57;4.68;;;;;;;;;;5017368;28;20112;-77
2024/01/17 06:24:47;;;;;;;14.05;5.68;;;;;;;;;;5017155;28;20372;-76
2024/01/17 06:27:14;;;;;;;10.88;5.72;;;;;;;;;;5017051;28;20022;-77
2024/01/17 06:29:43;;;;;;;13.40;5.10;;;;;;;;;;5017287;28;20083;-77
2024/01/17 06:32:09;;;;;;;14.55;5.00;;;;;;;;;;5019627;28;20022;-77
2024/01/17 06:34:34;;;;;;;13.32;5.03;;;;;;;;;;5018016;28;20032;-77
2024/01/17 06:37:00;;;;;;;11.63;4.88;;;;;;;;;;5018489;28;20034;-77
2024/01/17 06:39:26;;;;;;;14.80;5.30;;;;;;;;;;5000360;28;20500;-77
2024/01/17 06:41:52;;;;;;;10.55;4.55;;;;;;;;;;5001230;28;20477;-77
2024/01/17 06:44:17;;;;;;;12.68;4.50;;;;;;;;;;5018618;28;20037;-78
2024/01/17 06:46:42;;;;;;;14.35;5.57;;;;;;;;;;5004725;28;20029;-77
2024/01/17 06:49:07;;;;;;;14.13;5.05;;;;;;;;;;5019328;28;20018;-78
2024/01/17 06:51:33;;;;;;;8.32;4.72;;;;;;;;;;5017656;28;20397;-77
2024/01/17 06:53:58;;;;;;;12.75;5.38;;;;;;;;;;5017337;28;20018;-77
2024/01/17 06:56:24;;;;;;;15.98;5.30;;;;;;;;;;5018932;28;20072;-77
2024/01/17 06:58:49;;;;;;;13.85;5.47;;;;;;;;;;5019649;28;20021;-78
2024/01/17 07:01:14;;;;;;;14.80;5.85;;;;;;;;;;5017037;28;20526;-77
2024/01/17 07:03:39;;;;;;;14.98;6.05;;;;;;;;;;4998967;28;20481;-77
2024/01/17 07:06:05;;;;;;;12.55;5.78;;;;;;;;;;5017268;28;20489;-77
2024/01/17 07:08:30;;;;;;;17.30;5.95;;;;;;;;;;5018624;28;20030;-77
2024/01/17 07:10:59;;;;;;;15.45;5.93;;;;;;;;;;5016814;28;20022;-77
2024/01/17 07:13:24;;;;;;;12.18;5.80;;;;;;;;;;4998371;28;20101;-77
2024/01/17 07:15:50;;;;;;;10.25;4.82;;;;;;;;;;5018798;28;20064;-77
2024/01/17 07:18:15;;;;;;;14.18;5.25;;;;;;;;;;5017374;28;20028;-77
2024/01/17 07:20:40;;;;;;;11.88;5.28;;;;;;;;;;5016880;28;20029;-77
2024/01/17 07:23:08;;;;;;;11.18;5.15;;;;;;;;;;5017559;28;20029;-77
2024/01/17 07:25:33;;;;;;;12.07;5.38;;;;;;;;;;4997849;28;20018;-76
2024/01/17 07:27:58;;;;;;;11.95;5.70;;;;;;;;;;5015968;28;20183;-77
2024/01/17 07:30:24;;;;;;;14.18;5.43;;;;;;;;;;5015451;28;20030;-76
2024/01/17 07:32:49;;;;;;;16.80;6.40;;;;;;;;;;5017659;28;20125;-79
2024/01/17 07:35:14;;;;;;;15.82;7.00;;;;;;;;;;5016680;28;20026;-76
2024/01/17 07:37:39;;;;;;;19.73;6.60;;;;;;;;;;4998091;28;20029;-77
2024/01/17 07:40:05;;;;;;;10.32;5.13;;;;;;;;;;4997157;28;20080;-77
2024/01/17 07:42:30;;;;;;;9.65;5.07;;;;;;;;;;5019066;28;20504;-78
2024/01/17 07:44:56;;;;;;;14.93;4.85;;;;;;;;;;5015470;28;20507;-77
2024/01/17 07:47:21;;;;;;;11.68;4.90;;;;;;;;;;4997090;28;20185;-76
2024/01/17 07:49:47;;;;;;;10.55;4.15;;;;;;;;;;5017842;28;20026;-77
2024/01/17 07:52:12;;;;;;;12.60;4.30;;;;;;;;;;5011884;28;20029;-77
2024/01/17 07:54:38;;;;;;;7.85;3.55;;;;;;;;;;5031195;28;20056;-77
2024/01/17 07:57:04;;;;;;;6.45;3.47;;;;;;;;;;5019473;28;20026;-77
2024/01/17 07:59:29;;;;;;;7.78;3.72;;;;;;;;;;4998627;28;20118;-77
2024/01/17 08:01:55;;;;;;;10.63;4.38;;;;;;;;;;4997706;28;20022;-76
2024/01/17 08:04:20;;;;;;;6.60;3.85;;;;;;;;;;5015788;28;20116;-77
2024/01/17 08:06:46;;;;;;;7.85;2.88;;;;;;;;;;5017293;28;20476;-78
2024/01/17 08:09:20;;;;;;;8.13;4.05;;;;;;;;;;4997783;28;20026;-77
2024/01/17 08:11:53;;;;;;;10.40;4.15;;;;;;;;;;5015375;28;20393;-77
2024/01/17 08:14:19;;;;;;;5.15;2.67;;;;;;;;;;5017334;28;20025;-77
2024/01/17 08:16:46;;;;;;;6.03;3.45;;;;;;;;;;4998944;28;20026;-77
2024/01/17 08:19:11;;;;;;;8.40;3.95;;;;;;;;;;5017693;28;20025;-77
2024/01/17 08:21:37;;;;;;;7.82;4.18;;;;;;;;;;5015187;28;20037;-77
2024/01/17 08:24:02;;;;;;;6.55;3.70;;;;;;;;;;5015396;28;20033;-77
2024/01/17 08:26:28;;;;;;;9.15;4.25;;;;;;;;;;5015692;28;20017;-77
2024/01/17 08:28:54;;;;;;;8.70;4.03;;;;;;;;;;5015986;28;20026;-77
2024/01/17 08:31:19;;;;;;;9.27;3.70;;;;;;;;;;5015219;28;20032;-77
2024/01/17 08:33:44;;;;;;;7.03;3.58;;;;;;;;;;5015025;28;20489;-76
2024/01/17 08:36:10;;;;;;;5.65;3.00;;;;;;;;;;4996771;28;20036;-77
2024/01/17 08:38:35;;;;;;;5.20;2.15;;;;;;;;;;4997377;28;20124;-77
2024/01/17 08:41:00;;;;;;;6.97;3.95;;;;;;;;;;4996697;28;20080;-77
2024/01/17 08:43:26;;;;;;;7.75;3.72;;;;;;;;;;5015158;28;20034;-76
2024/01/17 08:45:51;;;;;;;12.70;4.90;;;;;;;;;;4997319;28;20534;-75
2024/01/17 08:48:16;;;;;;;5.63;2.97;;;;;;;;;;5015323;28;20064;-76
2024/01/17 08:50:41;;;;;;;8.90;4.20;;;;;;;;;;5014352;28;20064;-76
2024/01/17 08:53:06;;;;;;;7.13;3.75;;;;;;;;;;5014094;28;20042;-77
2024/01/17 08:55:32;;;;;;;8.52;4.35;;;;;;;;;;4997135;28;20021;-77
2024/01/17 08:57:57;;;;;;;11.00;4.35;;;;;;;;;;4996532;28;20056;-77
2024/01/17 09:00:22;;;;;;;5.25;2.67;;;;;;;;;;5014190;28;20397;-76
2024/01/17 09:02:47;;;;;;;8.20;3.70;;;;;;;;;;5014036;28;20384;-75
2024/01/17 09:05:13;;;;;;;8.13;4.30;;;;;;;;;;4996378;28;20030;-77
2024/01/17 09:07:39;;;;;;;11.15;4.30;;;;;;;;;;5013981;28;20069;-77
2024/01/17 09:10:04;;;;;;;7.43;3.53;;;;;;;;;;5013911;28;20036;-77
2024/01/17 09:12:30;;;;;;;4.72;2.05;;;;;;;;;;5014036;28;20022;-76
2024/01/17 09:14:55;;;;;;;9.40;3.97;;;;;;;;;;5013800;28;20022;-76
2024/01/17 09:17:20;;;;;;;7.82;3.42;;;;;;;;;;5014075;28;20034;-75
2024/01/17 09:19:46;;;;;;;5.97;3.15;;;;;;;;;;5013797;28;20056;-76
2024/01/17 09:22:11;;;;;;;5.07;2.45;;;;;;;;;;5013451;28;20033;-76
2024/01/17 09:24:37;;;;;;;7.93;3.40;;;;;;;;;;5013774;28;20489;-76
2024/01/17 09:27:02;;;;;;;7.05;3.30;;;;;;;;;;5013796;28;20026;-76
2024/01/17 09:29:33;;;;;;;7.88;3.63;;;;;;;;;;5013953;28;20080;-76
2024/01/17 09:31:58;;;;;;;3.92;1.85;;;;;;;;;;5014595;28;20075;-78
2024/01/17 09:34:23;;;;;;;11.32;3.90;;;;;;;;;;5016856;28;20076;-74
2024/01/17 09:36:50;;;;;;;7.22;3.20;;;;;;;;;;5013272;28;20026;-73
2024/01/17 09:39:15;;;;;;;4.15;2.55;;;;;;;;;;5012839;28;20464;-73
2024/01/17 09:41:41;;;;;;;10.52;3.25;;;;;;;;;;5012848;28;20026;-72
2024/01/17 09:44:07;;;;;;;8.90;3.78;;;;;;;;;;4995251;28;20112;-73
2024/01/17 09:46:36;;;;;;;8.65;3.80;;;;;;;;;;5011654;28;20133;-74
2024/01/17 09:49:02;;;;;;;9.13;3.95;;;;;;;;;;4996667;28;20041;-72
2024/01/17 09:51:31;;;;;;;9.15;3.75;;;;;;;;;;5016652;28;20042;-73
2024/01/17 09:53:59;;;;;;;6.97;3.50;;;;;;;;;;5016988;28;20018;-72
2024/01/17 09:56:25;;;;;;;7.15;2.92;;;;;;;;;;5016668;28;20056;-73
2024/01/17 09:58:52;;;;;;;3.70;2.58;;;;;;;;;;5016689;28;20504;-73
2024/01/17 10:01:20;;;;;;;8.32;3.70;;;;;;;;;;5016905;28;20022;-73
2024/01/17 10:03:46;;;;;;;9.50;4.28;;;;;;;;;;5016543;28;20374;-74
2024/01/17 10:06:14;;;;;;;8.85;3.85;;;;;;;;;;5016814;28;20033;-73
2024/01/17 10:08:39;;;;;;;9.25;3.80;;;;;;;;;;5015924;28;20030;-73
2024/01/17 10:11:04;;;;;;;5.50;2.88;;;;;;;;;;5015315;28;20082;-73
2024/01/17 10:13:29;;;;;;;7.22;3.45;;;;;;;;;;5016449;28;20034;-72
2024/01/17 10:15:59;;;;;;;7.38;3.60;;;;;;;;;;4998860;28;20018;-78
2024/01/17 10:18:24;;;;;;;9.50;3.92;;;;;;;;;;5015372;28;20037;-73
2024/01/17 10:20:50;;;;;;;7.18;3.05;;;;;;;;;;4998503;28;20021;-73
2024/01/17 10:23:15;;;;;;;14.10;3.50;;;;;;;;;;4998955;28;20097;-74
2024/01/17 10:25:41;;;;;;;4.43;2.45;;;;;;;;;;5016254;28;20543;-73
2024/01/17 10:28:07;;;;;;;22.05;3.10;;;;;;;;;;5016076;28;20481;-74
2024/01/17 10:30:33;;;;;;;5.60;2.92;;;;;;;;;;5016308;28;20053;-74
2024/01/17 10:32:59;;;;;;;6.13;3.30;;;;;;;;;;5016203;28;20046;-73
2024/01/17 10:35:25;;;;;;;10.13;3.78;;;;;;;;;;5015984;28;20048;-74
2024/01/17 10:37:52;;;;;;;9.52;4.50;;;;;;;;;;5015975;28;20505;-73
2024/01/17 10:40:18;;;;;;;7.15;2.90;;;;;;;;;;5016017;28;20061;-74
2024/01/17 10:42:43;;;;;;;5.80;2.75;;;;;;;;;;4998562;28;20076;-76
2024/01/17 10:45:22;;;;;;;7.78;3.72;;;;;;;;;;5016090;28;20408;-74
2024/01/17 10:47:48;;;;;;;12.15;3.65;;;;;;;;;;5016181;28;20488;-75
2024/01/17 10:50:14;;;;;;;5.20;2.90;;;;;;;;;;5015413;28;20076;-74
2024/01/17 10:52:46;;;;;;;6.30;2.83;;;;;;;;;;5016435;28;20022;-72
2024/01/17 10:55:14;;;;;;;11.85;3.92;;;;;;;;;;4998150;28;20080;-73
2024/01/17 10:57:44;;;;;;;4.65;2.75;;;;;;;;;;4995471;28;20036;-74
2024/01/17 11:00:17;;;;;;;10.55;4.43;;;;;;;;;;4997537;28;20064;-73
2024/01/17 11:02:43;;;;;;;8.82;4.57;;;;;;;;;;5015677;28;20113;-73
2024/01/17 11:05:14;;;;;;;5.45;3.22;;;;;;;;;;4998305;28;20033;-73
2024/01/17 11:07:40;;;;;;;10.73;3.63;;;;;;;;;;5015476;28;20121;-73
2024/01/17 11:10:07;;;;;;;9.43;3.85;;;;;;;;;;5015263;28;20532;-74
2024/01/17 11:12:34;;;;;;;7.38;3.50;;;;;;;;;;5015249;28;20083;-73
2024/01/17 11:15:00;;;;;;;9.98;4.28;;;;;;;;;;4997646;28;20045;-73
2024/01/17 11:17:28;;;;;;;6.32;3.20;;;;;;;;;;5015225;28;20026;-73
2024/01/17 11:19:54;;;;;;;3.97;2.58;;;;;;;;;;5015013;28;20029;-73
2024/01/17 11:22:21;;;;;;;7.72;4.13;;;;;;;;;;5015077;28;20084;-73
2024/01/17 11:24:58;;;;;;;9.35;4.00;;;;;;;;;;5015008;28;20025;-73
2024/01/17 11:27:36;;;;;;;7.22;3.10;;;;;;;;;;5015265;28;20432;-72
2024/01/17 11:30:26;;;;;;;10.43;3.90;;;;;;;;;;5014987;28;20060;-73
2024/01/17 11:33:05;;;;;;;9.60;3.95;;;;;;;;;;5015220;28;20116;-73
2024/01/17 11:35:49;;;;;;;8.27;3.75;;;;;;;;;;4997568;28;20404;-74
2024/01/17 11:38:23;;;;;;;6.70;3.22;;;;;;;;;;5014703;28;20375;-73
2024/01/17 11:40:50;;;;;;;7.32;3.28;;;;;;;;;;5014438;28;20033;-73
2024/01/17 11:43:16;;;;;;;5.15;2.20;;;;;;;;;;5014775;28;20053;-72
2024/01/17 11:45:42;;;;;;;7.68;3.90;;;;;;;;;;5014655;28;20473;-73
2024/01/17 11:48:18;;;;;;;7.00;3.55;;;;;;;;;;4997834;28;20022;-73
2024/01/17 11:50:59;;;;;;;5.68;3.33;;;;;;;;;;4997468;28;20022;-73
2024/01/17 11:53:26;;;;;;;6.00;3.20;;;;;;;;;;5015668;28;20543;-73
2024/01/17 11:55:52;;;;;;;11.88;3.92;;;;;;;;;;5015833;28;20107;-73
2024/01/17 11:58:17;;;;;;;16.50;3.33;;;;;;;;;;5015417;28;20025;-73
2024/01/17 12:00:43;;;;;;;4.93;2.83;;;;;;;;;;4997286;28;20027;-73
2024/01/17 12:03:08;;;;;;;8.05;3.75;;;;;;;;;;5014849;28;20106;-74
2024/01/17 12:05:37;;;;;;;8.93;3.42;;;;;;;;;;4996945;28;20029;-74
2024/01/17 12:08:05;;;;;;;6.18;3.03;;;;;;;;;;5015380;28;20061;-74
2024/01/17 12:10:31;;;;;;;9.75;3.38;;;;;;;;;;4996922;28;20385;-73
2024/01/17 12:12:59;;;;;;;8.63;3.70;;;;;;;;;;4997087;28;20014;-79
2024/01/17 12:15:25;;;;;;;8.32;3.65;;;;;;;;;;4996960;28;20030;-73
2024/01/17 12:17:50;;;;;;;5.88;3.33;;;;;;;;;;5015125;28;20096;-73
2024/01/17 12:20:16;;;;;;;7.43;3.22;;;;;;;;;;5014123;28;20025;-74
2024/01/17 12:22:50;;;;;;;10.77;3.10;;;;;;;;;;5013856;28;20385;-75
2024/01/17 12:25:19;;;;;;;5.97;3.35;;;;;;;;;;5014027;28;20061;-74
2024/01/17 12:27:55;;;;;;;7.68;3.53;;;;;;;;;;5013975;28;20036;-74
2024/01/17 12:30:20;;;;;;;10.73;3.75;;;;;;;;;;5014028;28;20049;-73
2024/01/17 12:32:46;;;;;;;7.72;3.25;;;;;;;;;;5014255;28;20080;-73
2024/01/17 12:35:12;;;;;;;7.63;3.88;;;;;;;;;;5013923;28;20018;-74
2024/01/17 12:37:37;;;;;;;7.45;3.20;;;;;;;;;;5013695;28;20036;-73
2024/01/17 12:40:04;;;;;;;5.55;3.25;;;;;;;;;;5013401;28;20041;-75
2024/01/17 12:42:30;;;;;;;4.20;2.38;;;;;;;;;;5013560;28;20133;-73
2024/01/17 12:44:56;;;;;;;6.00;3.13;;;;;;;;;;4996061;28;20400;-74
2024/01/17 12:47:21;;;;;;;8.63;3.35;;;;;;;;;;5013655;28;20017;-74
2024/01/17 12:49:47;;;;;;;7.25;3.50;;;;;;;;;;5013639;28;20025;-73
2024/01/17 12:52:14;;;;;;;5.38;2.42;;;;;;;;;;5014026;28;20026;-72
2024/01/17 12:54:39;;;;;;;6.35;3.42;;;;;;;;;;5013521;28;20484;-73
2024/01/17 12:57:04;;;;;;;5.97;2.95;;;;;;;;;;5013479;28;20040;-73
2024/01/17 12:59:30;;;;;;;6.68;3.33;;;;;;;;;;5014174;28;20026;-73
2024/01/17 13:01:57;;;;;;;6.18;3.08;;;;;;;;;;5013713;28;20025;-73
2024/01/17 13:04:22;;;;;;;5.13;2.90;;;;;;;;;;4996037;28;20029;-74
2024/01/17 13:06:50;;;;;;;7.38;2.72;;;;;;;;;;5013670;28;20033;-73
2024/01/17 13:09:17;;;;;;;8.73;3.63;;;;;;;;;;5013337;28;20108;-73
2024/01/17 13:11:50;;;;;;;8.30;3.50;;;;;;;;;;5013270;28;20029;-73
2024/01/17 13:14:21;;;;;;;6.47;3.33;;;;;;;;;;5013607;28;20018;-73
2024/01/17 13:16:47;;;;;;;6.40;3.47;;;;;;;;;;5013324;28;20022;-73
2024/01/17 13:19:13;;;;;;;6.65;2.70;;;;;;;;;;5013258;28;20374;-73
2024/01/17 13:21:43;;;;;;;5.97;2.72;;;;;;;;;;4995721;28;20052;-74
2024/01/17 13:24:10;;;;;;;5.10;2.47;;;;;;;;;;4994930;28;20032;-73
2024/01/17 13:26:35;;;;;;;5.18;2.50;;;;;;;;;;5013243;28;20057;-74
2024/01/17 13:29:04;;;;;;;6.65;3.20;;;;;;;;;;5013189;28;20033;-74
2024/01/17 13:31:34;;;;;;;6.43;3.20;;;;;;;;;;4995515;28;20026;-74
2024/01/17 13:34:00;;;;;;;5.13;2.63;;;;;;;;;;5013205;28;20017;-74
2024/01/17 13:36:25;;;;;;;7.60;3.50;;;;;;;;;;4995387;28;20022;-74
2024/01/17 13:38:51;;;;;;;6.47;3.40;;;;;;;;;;5013307;28;20025;-74
2024/01/17 13:41:17;;;;;;;8.27;3.53;;;;;;;;;;4995460;28;20053;-73
2024/01/17 13:43:43;;;;;;;8.15;3.40;;;;;;;;;;5013095;28;20026;-74
2024/01/17 13:46:09;;;;;;;8.02;3.58;;;;;;;;;;5013358;28;20022;-74
2024/01/17 13:48:35;;;;;;;15.13;3.75;;;;;;;;;;5013124;28;20032;-74
2024/01/17 13:51:00;;;;;;;9.43;4.10;;;;;;;;;;4995332;28;20103;-74
2024/01/17 13:53:29;;;;;;;7.93;3.70;;;;;;;;;;5012972;28;20025;-73
2024/01/17 13:55:58;;;;;;;8.23;3.53;;;;;;;;;;5012882;28;20022;-73
2024/01/17 13:58:24;;;;;;;5.50;3.45;;;;;;;;;;5012950;28;20033;-74
2024/01/17 14:00:55;;;;;;;8.75;3.28;;;;;;;;;;4995262;28;20029;-73
2024/01/17 14:03:21;;;;;;;6.53;3.33;;;;;;;;;;5013094;28;20030;-74
2024/01/17 14:05:46;;;;;;;9.55;3.60;;;;;;;;;;5012725;28;20022;-74
2024/01/17 14:08:11;;;;;;;7.25;3.05;;;;;;;;;;5019355;28;20045;-76
2024/01/17 14:10:36;;;;;;;10.35;3.85;;;;;;;;;;5012760;28;20030;-72
2024/01/17 14:13:02;;;;;;;6.82;3.53;;;;;;;;;;5012766;28;20033;-72
2024/01/17 14:15:27;;;;;;;5.38;2.72;;;;;;;;;;5013233;28;20037;-73
2024/01/17 14:17:53;;;;;;;6.55;3.67;;;;;;;;;;5012863;28;20105;-74
2024/01/17 14:20:19;;;;;;;7.38;3.75;;;;;;;;;;4995282;28;20037;-74
2024/01/17 14:22:46;;;;;;;2.38;1.65;;;;;;;;;;5013013;28;20022;-73
2024/01/17 14:25:14;;;;;;;6.43;2.83;;;;;;;;;;5013157;28;20568;-73
2024/01/17 14:27:40;;;;;;;3.22;2.10;;;;;;;;;;5013077;28;20037;-73
2024/01/17 14:30:07;;;;;;;7.07;4.32;;;;;;;;;;5012388;28;20021;-73
2024/01/17 14:32:32;;;;;;;5.15;2.40;;;;;;;;;;5012496;28;20102;-72